KBAD/BAD METAR and TAF weather

Enter ICAO airport designator
Station Type Date Time Source
KBAD METAR 2022/01/18 06:56 UTC NOAA

KBAD 180656Z AUTO 13004KT 10SM CLR 02/M02 A3008 RMK AO2 SLP189 T00191021


Station Type Date Time Source
KBAD Decoded METAR 2022/01/18 06:56 UTC NOAA

Barksdale Air Force Base, LA, United States (KBAD) 32-30N 093-40W
Jan 18, 2022 - 01:56 AM EST / 2022.01.18 0656 UTC
Wind: from the SE (130 degrees) at 5 MPH (4 KT):0
Visibility: 10 mile(s):0
Sky conditions: clear
Temperature: 35.4 F (1.9 C)
Dew Point: 28.2 F (-2.1 C)
Relative Humidity: 74%
Pressure (altimeter): 30.08 in. Hg (1018 hPa)
ob: KBAD 180656Z AUTO 13004KT 10SM CLR 02/M02 A3008 RMK AO2 SLP189 T00191021
cycle: 7

Station Type Date Time Source
KBAD TAF 2022/01/14 01:26 UTC NOAA

TAF KBAD 140120Z 1401/1502 VRB05KT 9999 SKC QNH3000INS
BECMG 1415/1416 13006KT 9999 BKN250 QNH2988INS
BECMG 1420/1421 14008KT 9999 OVC200 QNH2983INS TX21/1421Z TN04/1412Z LAST NO
AMDS AFT 1401 NEXT 1812

Example: see airport list